Catàleg de serveis del Meteocat
Campanya meteocatpedra

Dades de l'estació automàtica Vinyols i els Arcs

?
?
Resum diari 22:30 TU
Dades diàries de l'estació meteorològica
Temperatura mitjana 12.1 °C
Temperatura màxima 14.8 °C 15:12 TU
Temperatura mínima 9.3 °C 7:30 TU
Humitat relativa mitjana 74%
Precipitació acumulada 10.3 mm
Ratxa màxima del vent (2 m) 32.8 km/h - 312º 0:09 TU
Irradiació solar global 6.3 MJ/m2

El tram horari està expressat en Temps Universal (TU). Cal sumar una hora en horari d'hivern i dues en horari d'estiu per passar a l'hora oficial.

Vinyols i els Arcs

Metadades estació meteorol´gica
Municipi Vinyols i els Arcs
Comarca Baix Camp
Altitud 29 m
Data alta 17.05.1989
Estat actual Operativa
Dades de període
Període
TU
TM
°C
TX
°C
TN
°C
HRM
%
PPT
mm
VVM (2 m)
km/h
DVM (2 m)
graus
VVX (2 m)
km/h
RS
W/m2
00:00 - 00:30 13.2 13.3 13.0 55 0.0 15.8 304 32.8 0
00:30 - 01:00 12.8 13.0 12.7 57 0.0 12.2 304 24.1 0
01:00 - 01:30 12.5 12.7 12.3 59 0.0 10.4 297 26.3 0
01:30 - 02:00 12.5 12.6 12.3 61 0.0 6.1 286 15.8 0
02:00 - 02:30 12.1 12.4 11.6 63 0.0 1.8 263 10.1 0
02:30 - 03:00 11.6 11.6 11.5 66 0.0 0.4 263 4.7 0
03:00 - 03:30 11.6 11.7 11.5 66 0.0 1.1 260 4.7 0
03:30 - 04:00 11.8 12.2 11.6 65 0.0 2.2 276 7.2 0
04:00 - 04:30 12.3 12.5 12.2 62 0.0 3.6 272 11.5 0
04:30 - 05:00 12.6 12.6 12.5 61 0.0 4.3 281 12.6 0
05:00 - 05:30 12.3 12.5 12.1 63 0.0 1.8 277 12.6 0
05:30 - 06:00 11.3 12.1 10.3 75 0.3 0.0 283 2.5 0
06:00 - 06:30 10.2 10.4 9.7 89 0.9 0.7 344 5.0 0
06:30 - 07:00 9.4 9.7 9.3 95 1.0 1.4 14 5.8 1
07:00 - 07:30 9.3 9.3 9.3 97 1.3 1.1 3 4.7 4
07:30 - 08:00 9.4 9.5 9.3 99 1.1 1.4 14 4.7 16
08:00 - 08:30 9.5 9.6 9.5 99 0.9 1.4 360 5.0 22
08:30 - 09:00 9.7 9.8 9.6 99 0.9 1.1 342 6.8 28
09:00 - 09:30 10.0 10.2 9.8 98 0.5 2.2 322 6.1 67
09:30 - 10:00 10.3 10.3 10.2 98 1.6 1.4 301 6.5 65
10:00 - 10:30 10.4 10.6 10.3 98 1.4 0.7 350 3.2 91
10:30 - 11:00 11.0 11.3 10.6 96 0.1 0.4 352 4.3 163
11:00 - 11:30 11.2 11.4 11.0 96 0.2 0.7 126 4.3 124
11:30 - 12:00 12.0 13.0 11.3 92 0.1 2.2 302 9.7 307
12:00 - 12:30 13.3 13.5 12.9 81 0.0 7.6 304 20.5 526
12:30 - 13:00 13.7 14.0 13.4 76 0.0 8.3 298 19.1 489
13:00 - 13:30 13.2 13.6 13.0 75 0.0 8.6 300 20.9 312
13:30 - 14:00 13.8 14.1 13.4 73 0.0 7.9 295 19.1 431
14:00 - 14:30 13.9 14.1 13.7 70 0.0 8.3 303 24.1 334
14:30 - 15:00 14.4 14.6 14.1 67 0.0 5.8 305 15.1 271
15:00 - 15:30 14.8 14.8 14.6 67 0.0 5.0 305 13.0 181
15:30 - 16:00 14.6 14.7 14.3 70 0.0 2.2 319 13.0 96
16:00 - 16:30 13.9 14.3 13.2 73 0.0 1.8 309 13.3 33
16:30 - 17:00 13.5 14.2 13.0 73 0.0 4.3 273 17.6 0
17:00 - 17:30 13.4 13.7 13.2 70 0.0 3.6 290 15.5 0
17:30 - 18:00 13.6 13.7 13.4 62 0.0 6.8 286 15.8 0
18:00 - 18:30 13.1 13.8 12.1 61 0.0 2.9 276 14.8 0
18:30 - 19:00 11.8 12.4 11.0 66 0.0 1.8 289 10.8 0
19:00 - 19:30 12.9 13.5 12.2 57 0.0 8.3 312 23.8 0
19:30 - 20:00 13.2 13.5 12.6 54 0.0 6.5 308 24.5 0
20:00 - 20:30 12.1 12.5 11.1 61 0.0 1.4 308 5.8 0
20:30 - 21:00 11.4 12.0 11.1 66 0.0 2.2 276 11.9 0
21:00 - 21:30 12.3 12.5 11.7 61 0.0 3.6 275 13.0 0
21:30 - 22:00 11.7 12.0 11.4 64 0.0 2.9 260 10.1 0
22:00 - 22:30 11.0 11.4 10.7 68 0.0 2.9 251 9.4 0
22:30 - 23:00 10.8 10.9 10.8 69 0.0 3.6 280 7.9 0

Les dades en taronja només han passat un control de qualitat automàtic. Resta pendent la seva validació definitiva.